sensor_id;sensor_type;location;lat;lon;timestamp;P1;durP1;ratioP1;P2;durP2;ratioP2
36001;SDS011;22070;50.922;5.430;2022-12-29T00:02:13;2.53;;;1.00;;
36001;SDS011;22070;50.922;5.430;2022-12-29T00:04:39;0.70;;;0.70;;
36001;SDS011;22070;50.922;5.430;2022-12-29T00:07:05;1.47;;;0.80;;
36001;SDS011;22070;50.922;5.430;2022-12-29T00:09:32;1.27;;;0.75;;
36001;SDS011;22070;50.922;5.430;2022-12-29T00:11:59;1.40;;;0.98;;
36001;SDS011;22070;50.922;5.430;2022-12-29T00:14:25;0.50;;;0.50;;
36001;SDS011;22070;50.922;5.430;2022-12-29T00:17:10;1.05;;;0.57;;
36001;SDS011;22070;50.922;5.430;2022-12-29T00:19:36;1.17;;;0.52;;
36001;SDS011;22070;50.922;5.430;2022-12-29T00:22:20;1.58;;;0.50;;
36001;SDS011;22070;50.922;5.430;2022-12-29T00:25:05;1.27;;;0.60;;
36001;SDS011;22070;50.922;5.430;2022-12-29T00:27:52;1.35;;;0.93;;
36001;SDS011;22070;50.922;5.430;2022-12-29T00:30:36;1.20;;;0.43;;
36001;SDS011;22070;50.922;5.430;2022-12-29T00:33:21;1.13;;;0.50;;
36001;SDS011;22070;50.922;5.430;2022-12-29T00:36:11;1.00;;;0.55;;
36001;SDS011;22070;50.922;5.430;2022-12-29T00:38:45;0.68;;;0.50;;
36001;SDS011;22070;50.922;5.430;2022-12-29T00:41:33;0.77;;;0.50;;
36001;SDS011;22070;50.922;5.430;2022-12-29T00:44:17;0.32;;;0.32;;
36001;SDS011;22070;50.922;5.430;2022-12-29T00:46:43;0.70;;;0.50;;
36001;SDS011;22070;50.922;5.430;2022-12-29T00:49:10;0.30;;;0.30;;
36001;SDS011;22070;50.922;5.430;2022-12-29T00:52:00;0.30;;;0.20;;
36001;SDS011;22070;50.922;5.430;2022-12-29T00:54:26;0.60;;;0.57;;
36001;SDS011;22070;50.922;5.430;2022-12-29T00:56:53;0.52;;;0.30;;
36001;SDS011;22070;50.922;5.430;2022-12-29T00:59:20;1.63;;;0.60;;
36001;SDS011;22070;50.922;5.430;2022-12-29T01:01:46;0.73;;;0.35;;
36001;SDS011;22070;50.922;5.430;2022-12-29T01:04:12;0.38;;;0.38;;
36001;SDS011;22070;50.922;5.430;2022-12-29T01:06:39;2.92;;;0.50;;
36001;SDS011;22070;50.922;5.430;2022-12-29T01:09:05;1.00;;;0.57;;
36001;SDS011;22070;50.922;5.430;2022-12-29T01:11:50;2.38;;;0.63;;
36001;SDS011;22070;50.922;5.430;2022-12-29T01:14:16;1.98;;;0.65;;
36001;SDS011;22070;50.922;5.430;2022-12-29T01:16:43;0.90;;;0.60;;
36001;SDS011;22070;50.922;5.430;2022-12-29T01:19:10;1.10;;;0.50;;
36001;SDS011;22070;50.922;5.430;2022-12-29T01:21:36;1.50;;;0.32;;
36001;SDS011;22070;50.922;5.430;2022-12-29T01:24:02;2.13;;;0.80;;
36001;SDS011;22070;50.922;5.430;2022-12-29T01:26:28;1.37;;;0.50;;
36001;SDS011;22070;50.922;5.430;2022-12-29T01:28:53;1.20;;;0.63;;
36001;SDS011;22070;50.922;5.430;2022-12-29T01:31:19;1.50;;;0.60;;
36001;SDS011;22070;50.922;5.430;2022-12-29T01:33:45;2.07;;;0.60;;
36001;SDS011;22070;50.922;5.430;2022-12-29T01:36:12;2.80;;;0.68;;
36001;SDS011;22070;50.922;5.430;2022-12-29T01:38:40;1.42;;;0.70;;
36001;SDS011;22070;50.922;5.430;2022-12-29T01:41:06;2.45;;;0.70;;
36001;SDS011;22070;50.922;5.430;2022-12-29T01:43:45;2.65;;;0.80;;
36001;SDS011;22070;50.922;5.430;2022-12-29T01:46:31;2.65;;;0.90;;
36001;SDS011;22070;50.922;5.430;2022-12-29T01:51:45;3.95;;;1.00;;
36001;SDS011;22070;50.922;5.430;2022-12-29T01:54:29;3.33;;;0.60;;
36001;SDS011;22070;50.922;5.430;2022-12-29T01:56:59;1.42;;;0.70;;
36001;SDS011;22070;50.922;5.430;2022-12-29T01:59:29;2.35;;;0.90;;
36001;SDS011;22070;50.922;5.430;2022-12-29T02:01:59;5.63;;;0.75;;
36001;SDS011;22070;50.922;5.430;2022-12-29T02:04:26;0.77;;;0.52;;
36001;SDS011;22070;50.922;5.430;2022-12-29T02:06:55;1.48;;;0.70;;
36001;SDS011;22070;50.922;5.430;2022-12-29T02:09:25;2.65;;;0.63;;
36001;SDS011;22070;50.922;5.430;2022-12-29T02:11:51;2.10;;;0.70;;
36001;SDS011;22070;50.922;5.430;2022-12-29T02:14:18;1.90;;;0.50;;
36001;SDS011;22070;50.922;5.430;2022-12-29T02:16:57;2.50;;;0.80;;
36001;SDS011;22070;50.922;5.430;2022-12-29T02:31:01;1.05;;;0.40;;
36001;SDS011;22070;50.922;5.430;2022-12-29T02:42:03;0.82;;;0.40;;
36001;SDS011;22070;50.922;5.430;2022-12-29T02:47:49;2.03;;;0.43;;
36001;SDS011;22070;50.922;5.430;2022-12-29T02:50:20;0.75;;;0.50;;
36001;SDS011;22070;50.922;5.430;2022-12-29T02:53:00;1.27;;;0.57;;
36001;SDS011;22070;50.922;5.430;2022-12-29T02:55:31;1.60;;;0.50;;
36001;SDS011;22070;50.922;5.430;2022-12-29T02:58:12;0.80;;;0.60;;
36001;SDS011;22070;50.922;5.430;2022-12-29T03:00:55;0.73;;;0.43;;
36001;SDS011;22070;50.922;5.430;2022-12-29T03:09:33;0.35;;;0.30;;
36001;SDS011;22070;50.922;5.430;2022-12-29T03:12:35;0.30;;;0.30;;
36001;SDS011;22070;50.922;5.430;2022-12-29T03:15:55;3.40;;;0.40;;
36001;SDS011;22070;50.922;5.430;2022-12-29T03:23:41;2.13;;;0.40;;
36001;SDS011;22070;50.922;5.430;2022-12-29T03:26:12;1.55;;;0.40;;
36001;SDS011;22070;50.922;5.430;2022-12-29T03:28:43;0.65;;;0.30;;
36001;SDS011;22070;50.922;5.430;2022-12-29T03:31:12;1.08;;;0.40;;
36001;SDS011;22070;50.922;5.430;2022-12-29T03:33:39;0.65;;;0.30;;
36001;SDS011;22070;50.922;5.430;2022-12-29T03:36:08;1.15;;;0.40;;
36001;SDS011;22070;50.922;5.430;2022-12-29T03:38:45;2.42;;;0.40;;
36001;SDS011;22070;50.922;5.430;2022-12-29T03:41:18;1.15;;;0.50;;
36001;SDS011;22070;50.922;5.430;2022-12-29T03:43:46;0.70;;;0.60;;
36001;SDS011;22070;50.922;5.430;2022-12-29T03:46:12;1.45;;;0.30;;
36001;SDS011;22070;50.922;5.430;2022-12-29T03:48:38;2.53;;;0.57;;
36001;SDS011;22070;50.922;5.430;2022-12-29T03:51:04;1.15;;;0.40;;
36001;SDS011;22070;50.922;5.430;2022-12-29T03:53:29;2.88;;;0.60;;
36001;SDS011;22070;50.922;5.430;2022-12-29T03:55:55;2.75;;;0.50;;
36001;SDS011;22070;50.922;5.430;2022-12-29T03:58:21;9.70;;;0.70;;
36001;SDS011;22070;50.922;5.430;2022-12-29T04:00:46;2.20;;;0.50;;
36001;SDS011;22070;50.922;5.430;2022-12-29T04:03:12;1.85;;;0.60;;
36001;SDS011;22070;50.922;5.430;2022-12-29T04:05:38;5.97;;;0.52;;
36001;SDS011;22070;50.922;5.430;2022-12-29T04:08:03;3.60;;;0.40;;
36001;SDS011;22070;50.922;5.430;2022-12-29T04:10:29;1.35;;;0.43;;
36001;SDS011;22070;50.922;5.430;2022-12-29T04:12:55;4.43;;;0.52;;
36001;SDS011;22070;50.922;5.430;2022-12-29T04:15:20;1.70;;;0.40;;
36001;SDS011;22070;50.922;5.430;2022-12-29T04:17:46;1.77;;;0.40;;
36001;SDS011;22070;50.922;5.430;2022-12-29T04:20:12;0.73;;;0.50;;
36001;SDS011;22070;50.922;5.430;2022-12-29T04:23:04;0.95;;;0.40;;
36001;SDS011;22070;50.922;5.430;2022-12-29T04:25:31;2.88;;;0.50;;
36001;SDS011;22070;50.922;5.430;2022-12-29T04:27:57;1.73;;;0.40;;
36001;SDS011;22070;50.922;5.430;2022-12-29T04:30:23;1.00;;;0.50;;
36001;SDS011;22070;50.922;5.430;2022-12-29T04:32:49;2.28;;;0.40;;
36001;SDS011;22070;50.922;5.430;2022-12-29T04:35:14;2.60;;;0.57;;
36001;SDS011;22070;50.922;5.430;2022-12-29T04:37:40;2.13;;;0.55;;
36001;SDS011;22070;50.922;5.430;2022-12-29T04:40:06;2.38;;;0.45;;
36001;SDS011;22070;50.922;5.430;2022-12-29T04:42:32;2.13;;;0.50;;
36001;SDS011;22070;50.922;5.430;2022-12-29T04:44:58;3.40;;;0.50;;
36001;SDS011;22070;50.922;5.430;2022-12-29T04:47:24;4.03;;;0.68;;
36001;SDS011;22070;50.922;5.430;2022-12-29T04:49:49;3.85;;;0.73;;
36001;SDS011;22070;50.922;5.430;2022-12-29T04:52:15;3.58;;;0.50;;
36001;SDS011;22070;50.922;5.430;2022-12-29T04:54:41;2.15;;;0.50;;
36001;SDS011;22070;50.922;5.430;2022-12-29T04:57:06;2.03;;;0.50;;
36001;SDS011;22070;50.922;5.430;2022-12-29T04:59:32;2.92;;;0.30;;
36001;SDS011;22070;50.922;5.430;2022-12-29T05:01:57;2.03;;;0.52;;
36001;SDS011;22070;50.922;5.430;2022-12-29T05:04:23;3.67;;;0.38;;
36001;SDS011;22070;50.922;5.430;2022-12-29T05:06:49;2.80;;;0.57;;
36001;SDS011;22070;50.922;5.430;2022-12-29T05:09:14;1.67;;;0.55;;
36001;SDS011;22070;50.922;5.430;2022-12-29T05:11:40;2.88;;;0.43;;
36001;SDS011;22070;50.922;5.430;2022-12-29T05:14:06;1.55;;;0.38;;
36001;SDS011;22070;50.922;5.430;2022-12-29T05:16:31;2.85;;;0.57;;
36001;SDS011;22070;50.922;5.430;2022-12-29T05:18:57;1.83;;;0.50;;
36001;SDS011;22070;50.922;5.430;2022-12-29T05:21:23;6.32;;;0.73;;
36001;SDS011;22070;50.922;5.430;2022-12-29T05:23:48;3.63;;;0.70;;
36001;SDS011;22070;50.922;5.430;2022-12-29T05:26:14;2.05;;;0.40;;
36001;SDS011;22070;50.922;5.430;2022-12-29T05:28:40;1.25;;;0.40;;
36001;SDS011;22070;50.922;5.430;2022-12-29T05:31:05;3.03;;;0.60;;
36001;SDS011;22070;50.922;5.430;2022-12-29T05:33:31;2.33;;;0.57;;
36001;SDS011;22070;50.922;5.430;2022-12-29T05:35:56;2.65;;;0.70;;
36001;SDS011;22070;50.922;5.430;2022-12-29T05:38:28;3.38;;;0.60;;
36001;SDS011;22070;50.922;5.430;2022-12-29T05:40:53;2.63;;;0.65;;
36001;SDS011;22070;50.922;5.430;2022-12-29T05:43:19;1.20;;;0.50;;
36001;SDS011;22070;50.922;5.430;2022-12-29T05:45:47;2.78;;;0.52;;
36001;SDS011;22070;50.922;5.430;2022-12-29T05:48:13;6.20;;;0.73;;
36001;SDS011;22070;50.922;5.430;2022-12-29T05:50:39;2.75;;;0.60;;
36001;SDS011;22070;50.922;5.430;2022-12-29T05:53:05;2.08;;;0.60;;
36001;SDS011;22070;50.922;5.430;2022-12-29T05:55:30;6.00;;;1.03;;
36001;SDS011;22070;50.922;5.430;2022-12-29T05:57:56;3.28;;;0.70;;
36001;SDS011;22070;50.922;5.430;2022-12-29T06:00:22;5.40;;;0.65;;
36001;SDS011;22070;50.922;5.430;2022-12-29T06:02:48;6.30;;;0.80;;
36001;SDS011;22070;50.922;5.430;2022-12-29T06:05:14;6.43;;;0.90;;
36001;SDS011;22070;50.922;5.430;2022-12-29T06:07:40;3.38;;;0.90;;
36001;SDS011;22070;50.922;5.430;2022-12-29T06:10:06;5.88;;;0.60;;
36001;SDS011;22070;50.922;5.430;2022-12-29T06:12:32;5.17;;;0.73;;
36001;SDS011;22070;50.922;5.430;2022-12-29T06:14:57;5.07;;;0.68;;
36001;SDS011;22070;50.922;5.430;2022-12-29T06:17:23;5.22;;;0.98;;
36001;SDS011;22070;50.922;5.430;2022-12-29T06:19:49;3.33;;;0.50;;
36001;SDS011;22070;50.922;5.430;2022-12-29T06:22:14;5.05;;;0.55;;
36001;SDS011;22070;50.922;5.430;2022-12-29T06:24:40;3.80;;;0.73;;
36001;SDS011;22070;50.922;5.430;2022-12-29T06:27:06;4.53;;;1.03;;
36001;SDS011;22070;50.922;5.430;2022-12-29T06:29:32;3.60;;;0.95;;
36001;SDS011;22070;50.922;5.430;2022-12-29T06:31:58;5.50;;;1.17;;
36001;SDS011;22070;50.922;5.430;2022-12-29T06:34:24;4.67;;;0.80;;
36001;SDS011;22070;50.922;5.430;2022-12-29T06:36:50;4.03;;;0.83;;
36001;SDS011;22070;50.922;5.430;2022-12-29T06:39:16;4.85;;;0.75;;
36001;SDS011;22070;50.922;5.430;2022-12-29T06:41:41;6.45;;;0.80;;
36001;SDS011;22070;50.922;5.430;2022-12-29T06:44:07;6.95;;;1.45;;
36001;SDS011;22070;50.922;5.430;2022-12-29T06:46:33;1.83;;;0.55;;
36001;SDS011;22070;50.922;5.430;2022-12-29T06:48:58;5.60;;;0.82;;
36001;SDS011;22070;50.922;5.430;2022-12-29T06:51:24;3.35;;;0.70;;
36001;SDS011;22070;50.922;5.430;2022-12-29T06:53:50;4.57;;;0.55;;
36001;SDS011;22070;50.922;5.430;2022-12-29T06:56:15;4.38;;;1.02;;
36001;SDS011;22070;50.922;5.430;2022-12-29T06:58:41;4.57;;;1.13;;
36001;SDS011;22070;50.922;5.430;2022-12-29T07:01:06;10.20;;;1.55;;
36001;SDS011;22070;50.922;5.430;2022-12-29T07:03:32;4.93;;;1.30;;
36001;SDS011;22070;50.922;5.430;2022-12-29T07:06:00;6.40;;;1.13;;
36001;SDS011;22070;50.922;5.430;2022-12-29T07:08:26;5.03;;;0.73;;
36001;SDS011;22070;50.922;5.430;2022-12-29T07:10:52;2.83;;;0.60;;
36001;SDS011;22070;50.922;5.430;2022-12-29T07:13:18;6.35;;;1.00;;
36001;SDS011;22070;50.922;5.430;2022-12-29T07:15:44;6.13;;;0.95;;
36001;SDS011;22070;50.922;5.430;2022-12-29T07:18:09;10.93;;;1.50;;
36001;SDS011;22070;50.922;5.430;2022-12-29T07:20:35;11.00;;;1.30;;
36001;SDS011;22070;50.922;5.430;2022-12-29T07:23:01;4.03;;;0.60;;
36001;SDS011;22070;50.922;5.430;2022-12-29T07:25:27;4.75;;;0.75;;
36001;SDS011;22070;50.922;5.430;2022-12-29T07:30:20;5.57;;;0.90;;
36001;SDS011;22070;50.922;5.430;2022-12-29T07:32:45;8.45;;;1.05;;
36001;SDS011;22070;50.922;5.430;2022-12-29T07:35:11;9.57;;;1.20;;
36001;SDS011;22070;50.922;5.430;2022-12-29T07:37:36;6.05;;;1.00;;
36001;SDS011;22070;50.922;5.430;2022-12-29T07:40:02;7.30;;;0.90;;
36001;SDS011;22070;50.922;5.430;2022-12-29T07:42:29;5.85;;;1.38;;
36001;SDS011;22070;50.922;5.430;2022-12-29T07:44:58;10.40;;;1.35;;
36001;SDS011;22070;50.922;5.430;2022-12-29T07:47:23;10.02;;;1.30;;
36001;SDS011;22070;50.922;5.430;2022-12-29T07:49:49;4.05;;;0.80;;
36001;SDS011;22070;50.922;5.430;2022-12-29T07:52:15;6.93;;;1.08;;
36001;SDS011;22070;50.922;5.430;2022-12-29T07:54:41;3.17;;;0.95;;
36001;SDS011;22070;50.922;5.430;2022-12-29T07:57:06;4.80;;;1.10;;
36001;SDS011;22070;50.922;5.430;2022-12-29T07:59:32;8.30;;;1.58;;
36001;SDS011;22070;50.922;5.430;2022-12-29T08:01:58;5.50;;;0.90;;
36001;SDS011;22070;50.922;5.430;2022-12-29T08:04:23;5.75;;;1.23;;
36001;SDS011;22070;50.922;5.430;2022-12-29T08:06:49;3.63;;;0.80;;
36001;SDS011;22070;50.922;5.430;2022-12-29T08:09:15;6.88;;;1.45;;
36001;SDS011;22070;50.922;5.430;2022-12-29T08:11:41;6.28;;;0.95;;
36001;SDS011;22070;50.922;5.430;2022-12-29T08:14:07;8.82;;;1.40;;
36001;SDS011;22070;50.922;5.430;2022-12-29T08:16:33;6.43;;;1.10;;
36001;SDS011;22070;50.922;5.430;2022-12-29T08:18:59;8.73;;;1.38;;
36001;SDS011;22070;50.922;5.430;2022-12-29T08:21:25;6.60;;;1.30;;
36001;SDS011;22070;50.922;5.430;2022-12-29T08:23:52;4.70;;;0.80;;
36001;SDS011;22070;50.922;5.430;2022-12-29T08:26:18;4.97;;;0.77;;
36001;SDS011;22070;50.922;5.430;2022-12-29T08:28:43;6.40;;;0.88;;
36001;SDS011;22070;50.922;5.430;2022-12-29T08:31:09;4.90;;;1.30;;
36001;SDS011;22070;50.922;5.430;2022-12-29T08:33:35;5.63;;;0.87;;
36001;SDS011;22070;50.922;5.430;2022-12-29T08:36:01;9.75;;;1.35;;
36001;SDS011;22070;50.922;5.430;2022-12-29T08:38:28;7.03;;;1.27;;
36001;SDS011;22070;50.922;5.430;2022-12-29T08:40:54;11.75;;;1.50;;
36001;SDS011;22070;50.922;5.430;2022-12-29T08:43:21;8.98;;;0.88;;
36001;SDS011;22070;50.922;5.430;2022-12-29T08:45:46;5.95;;;0.70;;
36001;SDS011;22070;50.922;5.430;2022-12-29T08:48:12;14.60;;;1.50;;
36001;SDS011;22070;50.922;5.430;2022-12-29T08:50:38;5.55;;;1.00;;
36001;SDS011;22070;50.922;5.430;2022-12-29T08:53:03;5.10;;;1.03;;
36001;SDS011;22070;50.922;5.430;2022-12-29T08:55:29;5.60;;;0.90;;
36001;SDS011;22070;50.922;5.430;2022-12-29T08:57:54;5.68;;;0.95;;
36001;SDS011;22070;50.922;5.430;2022-12-29T09:00:20;5.88;;;1.35;;
36001;SDS011;22070;50.922;5.430;2022-12-29T09:02:46;5.53;;;0.75;;
36001;SDS011;22070;50.922;5.430;2022-12-29T09:05:12;3.70;;;0.68;;
36001;SDS011;22070;50.922;5.430;2022-12-29T09:07:38;7.15;;;0.90;;
36001;SDS011;22070;50.922;5.430;2022-12-29T09:10:04;5.72;;;0.80;;
36001;SDS011;22070;50.922;5.430;2022-12-29T09:12:30;6.28;;;0.80;;
36001;SDS011;22070;50.922;5.430;2022-12-29T09:14:55;7.57;;;1.10;;
36001;SDS011;22070;50.922;5.430;2022-12-29T09:17:21;8.77;;;1.23;;
36001;SDS011;22070;50.922;5.430;2022-12-29T09:20:05;6.10;;;0.95;;
36001;SDS011;22070;50.922;5.430;2022-12-29T09:22:31;8.70;;;1.23;;
36001;SDS011;22070;50.922;5.430;2022-12-29T09:24:57;6.85;;;1.30;;
36001;SDS011;22070;50.922;5.430;2022-12-29T09:27:23;11.07;;;1.48;;
36001;SDS011;22070;50.922;5.430;2022-12-29T09:29:48;8.98;;;1.48;;
36001;SDS011;22070;50.922;5.430;2022-12-29T09:32:14;9.73;;;1.33;;
36001;SDS011;22070;50.922;5.430;2022-12-29T09:34:39;8.43;;;1.75;;
36001;SDS011;22070;50.922;5.430;2022-12-29T09:37:05;3.55;;;0.77;;
36001;SDS011;22070;50.922;5.430;2022-12-29T09:39:31;6.90;;;1.10;;
36001;SDS011;22070;50.922;5.430;2022-12-29T09:42:01;9.25;;;1.40;;
36001;SDS011;22070;50.922;5.430;2022-12-29T09:47:11;6.57;;;1.00;;
36001;SDS011;22070;50.922;5.430;2022-12-29T09:49:44;6.88;;;1.17;;
36001;SDS011;22070;50.922;5.430;2022-12-29T09:52:15;11.57;;;1.55;;
36001;SDS011;22070;50.922;5.430;2022-12-29T09:55:04;7.60;;;1.30;;
36001;SDS011;22070;50.922;5.430;2022-12-29T09:57:43;8.73;;;1.20;;
36001;SDS011;22070;50.922;5.430;2022-12-29T10:00:14;7.47;;;1.25;;
36001;SDS011;22070;50.922;5.430;2022-12-29T10:02:43;7.13;;;1.35;;
36001;SDS011;22070;50.922;5.430;2022-12-29T10:05:22;9.48;;;1.45;;
36001;SDS011;22070;50.922;5.430;2022-12-29T10:08:00;11.27;;;1.48;;
36001;SDS011;22070;50.922;5.430;2022-12-29T10:10:55;10.73;;;1.55;;
36001;SDS011;22070;50.922;5.430;2022-12-29T10:19:14;12.30;;;1.38;;
36001;SDS011;22070;50.922;5.430;2022-12-29T10:22:09;8.57;;;1.10;;
36001;SDS011;22070;50.922;5.430;2022-12-29T10:24:50;5.57;;;1.55;;
36001;SDS011;22070;50.922;5.430;2022-12-29T10:27:19;4.80;;;1.05;;
36001;SDS011;22070;50.922;5.430;2022-12-29T10:29:49;6.55;;;1.15;;
36001;SDS011;22070;50.922;5.430;2022-12-29T10:34:56;7.20;;;1.25;;
36001;SDS011;22070;50.922;5.430;2022-12-29T10:37:37;6.95;;;1.05;;
36001;SDS011;22070;50.922;5.430;2022-12-29T10:45:47;6.38;;;1.60;;
36001;SDS011;22070;50.922;5.430;2022-12-29T10:51:22;3.15;;;1.02;;
36001;SDS011;22070;50.922;5.430;2022-12-29T10:53:54;7.22;;;1.20;;
36001;SDS011;22070;50.922;5.430;2022-12-29T10:56:39;6.97;;;1.40;;
36001;SDS011;22070;50.922;5.430;2022-12-29T10:59:19;11.77;;;1.27;;
36001;SDS011;22070;50.922;5.430;2022-12-29T11:07:23;5.32;;;1.90;;
36001;SDS011;22070;50.922;5.430;2022-12-29T11:09:50;15.05;;;1.55;;
36001;SDS011;22070;50.922;5.430;2022-12-29T11:12:21;3.93;;;1.00;;
36001;SDS011;22070;50.922;5.430;2022-12-29T11:17:42;11.57;;;1.27;;
36001;SDS011;22070;50.922;5.430;2022-12-29T11:20:19;6.70;;;1.25;;
36001;SDS011;22070;50.922;5.430;2022-12-29T11:22:56;9.88;;;0.98;;
36001;SDS011;22070;50.922;5.430;2022-12-29T11:25:23;6.85;;;1.35;;
36001;SDS011;22070;50.922;5.430;2022-12-29T11:27:55;8.05;;;1.83;;
36001;SDS011;22070;50.922;5.430;2022-12-29T11:30:24;12.40;;;1.42;;
36001;SDS011;22070;50.922;5.430;2022-12-29T11:32:53;7.50;;;1.05;;
36001;SDS011;22070;50.922;5.430;2022-12-29T11:35:33;8.05;;;1.50;;
36001;SDS011;22070;50.922;5.430;2022-12-29T11:38:01;6.05;;;1.23;;
36001;SDS011;22070;50.922;5.430;2022-12-29T11:40:27;8.07;;;1.40;;
36001;SDS011;22070;50.922;5.430;2022-12-29T11:42:54;8.15;;;1.05;;
36001;SDS011;22070;50.922;5.430;2022-12-29T11:45:22;8.18;;;1.52;;
36001;SDS011;22070;50.922;5.430;2022-12-29T11:47:56;11.32;;;1.65;;
36001;SDS011;22070;50.922;5.430;2022-12-29T11:50:31;8.13;;;1.20;;
36001;SDS011;22070;50.922;5.430;2022-12-29T11:55:32;8.80;;;1.10;;
36001;SDS011;22070;50.922;5.430;2022-12-29T11:57:58;5.10;;;0.90;;
36001;SDS011;22070;50.922;5.430;2022-12-29T12:00:27;4.88;;;1.23;;
36001;SDS011;22070;50.922;5.430;2022-12-29T12:03:00;9.18;;;0.95;;
36001;SDS011;22070;50.922;5.430;2022-12-29T12:08:36;10.07;;;1.13;;
36001;SDS011;22070;50.922;5.430;2022-12-29T12:13:42;4.97;;;0.90;;
36001;SDS011;22070;50.922;5.430;2022-12-29T12:16:39;6.10;;;0.90;;
36001;SDS011;22070;50.922;5.430;2022-12-29T12:22:13;5.18;;;1.10;;
36001;SDS011;22070;50.922;5.430;2022-12-29T12:27:24;7.60;;;1.15;;
36001;SDS011;22070;50.922;5.430;2022-12-29T12:30:05;9.18;;;1.25;;
36001;SDS011;22070;50.922;5.430;2022-12-29T12:38:06;10.00;;;1.50;;
36001;SDS011;22070;50.922;5.430;2022-12-29T12:40:39;7.05;;;1.20;;
36001;SDS011;22070;50.922;5.430;2022-12-29T12:43:44;6.70;;;1.10;;
36001;SDS011;22070;50.922;5.430;2022-12-29T12:52:00;10.23;;;1.35;;
36001;SDS011;22070;50.922;5.430;2022-12-29T13:00:25;8.32;;;1.55;;
36001;SDS011;22070;50.922;5.430;2022-12-29T13:16:53;3.03;;;0.85;;
36001;SDS011;22070;50.922;5.430;2022-12-29T13:22:13;7.93;;;1.33;;
36001;SDS011;22070;50.922;5.430;2022-12-29T13:25:01;9.13;;;1.20;;
36001;SDS011;22070;50.922;5.430;2022-12-29T13:27:50;9.32;;;1.58;;
36001;SDS011;22070;50.922;5.430;2022-12-29T13:30:37;7.50;;;1.10;;
36001;SDS011;22070;50.922;5.430;2022-12-29T13:36:26;4.13;;;1.27;;
36001;SDS011;22070;50.922;5.430;2022-12-29T13:39:04;5.00;;;1.10;;
36001;SDS011;22070;50.922;5.430;2022-12-29T13:41:37;9.38;;;1.67;;
36001;SDS011;22070;50.922;5.430;2022-12-29T13:44:09;7.18;;;1.33;;
36001;SDS011;22070;50.922;5.430;2022-12-29T13:46:43;5.97;;;1.25;;
36001;SDS011;22070;50.922;5.430;2022-12-29T13:49:13;9.10;;;1.40;;
36001;SDS011;22070;50.922;5.430;2022-12-29T13:54:41;10.27;;;1.20;;
36001;SDS011;22070;50.922;5.430;2022-12-29T13:59:51;7.50;;;1.98;;
36001;SDS011;22070;50.922;5.430;2022-12-29T14:04:56;8.20;;;1.30;;
36001;SDS011;22070;50.922;5.430;2022-12-29T14:07:24;8.93;;;1.50;;
36001;SDS011;22070;50.922;5.430;2022-12-29T14:09:51;9.88;;;1.23;;
36001;SDS011;22070;50.922;5.430;2022-12-29T14:17:37;6.53;;;1.40;;
36001;SDS011;22070;50.922;5.430;2022-12-29T14:20:05;5.18;;;1.30;;
36001;SDS011;22070;50.922;5.430;2022-12-29T14:22:55;6.80;;;1.33;;
36001;SDS011;22070;50.922;5.430;2022-12-29T14:25:51;8.13;;;1.40;;
36001;SDS011;22070;50.922;5.430;2022-12-29T14:28:29;9.85;;;1.50;;
36001;SDS011;22070;50.922;5.430;2022-12-29T14:30:59;7.20;;;1.13;;
36001;SDS011;22070;50.922;5.430;2022-12-29T14:33:30;7.93;;;1.52;;
36001;SDS011;22070;50.922;5.430;2022-12-29T14:36:18;8.55;;;1.63;;
36001;SDS011;22070;50.922;5.430;2022-12-29T14:38:45;10.70;;;2.00;;
36001;SDS011;22070;50.922;5.430;2022-12-29T14:41:16;9.43;;;2.00;;
36001;SDS011;22070;50.922;5.430;2022-12-29T14:44:09;10.27;;;1.52;;
36001;SDS011;22070;50.922;5.430;2022-12-29T14:46:48;11.93;;;1.70;;
36001;SDS011;22070;50.922;5.430;2022-12-29T14:49:24;11.88;;;2.05;;
36001;SDS011;22070;50.922;5.430;2022-12-29T14:54:45;8.70;;;1.65;;
36001;SDS011;22070;50.922;5.430;2022-12-29T14:57:20;8.95;;;1.67;;
36001;SDS011;22070;50.922;5.430;2022-12-29T14:59:47;9.60;;;1.90;;
36001;SDS011;22070;50.922;5.430;2022-12-29T15:02:19;15.55;;;1.88;;
36001;SDS011;22070;50.922;5.430;2022-12-29T15:04:48;11.40;;;2.35;;
36001;SDS011;22070;50.922;5.430;2022-12-29T15:07:15;20.85;;;2.35;;
36001;SDS011;22070;50.922;5.430;2022-12-29T15:09:47;15.88;;;2.17;;
36001;SDS011;22070;50.922;5.430;2022-12-29T15:12:23;9.48;;;1.90;;
36001;SDS011;22070;50.922;5.430;2022-12-29T15:15:27;14.90;;;1.83;;
36001;SDS011;22070;50.922;5.430;2022-12-29T15:17:56;11.82;;;1.67;;
36001;SDS011;22070;50.922;5.430;2022-12-29T15:20:23;9.57;;;1.90;;
36001;SDS011;22070;50.922;5.430;2022-12-29T15:22:54;13.02;;;2.10;;
36001;SDS011;22070;50.922;5.430;2022-12-29T15:25:28;7.55;;;1.40;;
36001;SDS011;22070;50.922;5.430;2022-12-29T15:28:01;11.52;;;1.77;;
36001;SDS011;22070;50.922;5.430;2022-12-29T15:30:28;11.95;;;1.85;;
36001;SDS011;22070;50.922;5.430;2022-12-29T15:32:54;14.80;;;2.33;;
36001;SDS011;22070;50.922;5.430;2022-12-29T15:35:31;6.97;;;1.77;;
36001;SDS011;22070;50.922;5.430;2022-12-29T15:37:57;11.05;;;1.70;;
36001;SDS011;22070;50.922;5.430;2022-12-29T15:40:25;10.32;;;1.63;;
36001;SDS011;22070;50.922;5.430;2022-12-29T15:45:46;8.30;;;1.73;;
36001;SDS011;22070;50.922;5.430;2022-12-29T15:48:16;6.50;;;2.05;;
36001;SDS011;22070;50.922;5.430;2022-12-29T15:50:44;9.35;;;1.27;;
36001;SDS011;22070;50.922;5.430;2022-12-29T15:53:11;3.83;;;1.10;;
36001;SDS011;22070;50.922;5.430;2022-12-29T15:55:42;6.70;;;1.17;;
36001;SDS011;22070;50.922;5.430;2022-12-29T15:58:19;9.70;;;1.52;;
36001;SDS011;22070;50.922;5.430;2022-12-29T16:00:49;7.25;;;1.50;;
36001;SDS011;22070;50.922;5.430;2022-12-29T16:03:21;9.85;;;2.00;;
36001;SDS011;22070;50.922;5.430;2022-12-29T16:08:54;12.05;;;1.85;;
36001;SDS011;22070;50.922;5.430;2022-12-29T16:11:38;14.77;;;2.20;;
36001;SDS011;22070;50.922;5.430;2022-12-29T16:14:19;12.77;;;2.22;;
36001;SDS011;22070;50.922;5.430;2022-12-29T16:16:50;19.70;;;2.42;;
36001;SDS011;22070;50.922;5.430;2022-12-29T16:19:21;11.50;;;1.60;;
36001;SDS011;22070;50.922;5.430;2022-12-29T16:21:53;9.73;;;1.77;;
36001;SDS011;22070;50.922;5.430;2022-12-29T16:24:20;14.95;;;2.22;;
36001;SDS011;22070;50.922;5.430;2022-12-29T16:26:49;14.98;;;2.08;;
36001;SDS011;22070;50.922;5.430;2022-12-29T16:29:20;14.02;;;2.08;;
36001;SDS011;22070;50.922;5.430;2022-12-29T16:31:54;14.25;;;1.98;;
36001;SDS011;22070;50.922;5.430;2022-12-29T16:37:03;9.65;;;2.00;;
36001;SDS011;22070;50.922;5.430;2022-12-29T16:39:49;12.98;;;2.60;;
36001;SDS011;22070;50.922;5.430;2022-12-29T16:50:44;12.27;;;2.13;;
36001;SDS011;22070;50.922;5.430;2022-12-29T16:55:50;14.30;;;1.70;;
36001;SDS011;22070;50.922;5.430;2022-12-29T16:58:21;9.65;;;1.45;;
36001;SDS011;22070;50.922;5.430;2022-12-29T17:00:49;11.45;;;2.28;;
36001;SDS011;22070;50.922;5.430;2022-12-29T17:03:17;17.02;;;2.22;;
36001;SDS011;22070;50.922;5.430;2022-12-29T17:05:43;13.68;;;2.00;;
36001;SDS011;22070;50.922;5.430;2022-12-29T17:08:16;7.53;;;1.63;;
36001;SDS011;22070;50.922;5.430;2022-12-29T17:10:48;12.05;;;1.70;;
36001;SDS011;22070;50.922;5.430;2022-12-29T17:13:37;10.23;;;1.70;;
36001;SDS011;22070;50.922;5.430;2022-12-29T17:16:04;9.80;;;1.73;;
36001;SDS011;22070;50.922;5.430;2022-12-29T17:18:32;16.05;;;2.10;;
36001;SDS011;22070;50.922;5.430;2022-12-29T17:20:59;6.63;;;1.83;;
36001;SDS011;22070;50.922;5.430;2022-12-29T17:23:24;11.40;;;1.50;;
36001;SDS011;22070;50.922;5.430;2022-12-29T17:25:50;10.70;;;1.67;;
36001;SDS011;22070;50.922;5.430;2022-12-29T17:30:47;11.63;;;2.33;;
36001;SDS011;22070;50.922;5.430;2022-12-29T17:33:15;15.60;;;1.70;;
36001;SDS011;22070;50.922;5.430;2022-12-29T17:35:42;14.68;;;3.78;;
36001;SDS011;22070;50.922;5.430;2022-12-29T17:38:18;11.25;;;1.88;;
36001;SDS011;22070;50.922;5.430;2022-12-29T17:40:47;7.10;;;1.40;;
36001;SDS011;22070;50.922;5.430;2022-12-29T17:43:14;7.53;;;2.65;;